createdAt,value
2016-05-18T00:00:04.697Z,18.6
2016-05-18T00:01:04.746Z,18.63
2016-05-18T00:02:04.765Z,18.61
2016-05-18T00:03:04.814Z,18.68
2016-05-18T00:04:04.692Z,18.63
2016-05-18T00:05:04.883Z,18.61
2016-05-18T00:06:04.916Z,18.61
2016-05-18T00:07:04.950Z,18.59
2016-05-18T00:08:04.999Z,18.61
2016-05-18T00:09:05.018Z,18.63
2016-05-18T00:10:05.068Z,18.65
2016-05-18T00:11:05.102Z,18.61
2016-05-18T00:12:05.135Z,18.57
2016-05-18T00:13:05.169Z,18.61
2016-05-18T00:14:05.204Z,18.57
2016-05-18T00:15:05.253Z,18.65
2016-05-18T00:16:05.287Z,18.56
2016-05-18T00:17:05.321Z,18.57
2016-05-18T00:18:05.199Z,18.56
2016-05-18T00:19:05.389Z,18.57
2016-05-18T00:20:05.438Z,18.61
2016-05-18T00:21:05.472Z,18.66
2016-05-18T00:22:05.506Z,18.51
2016-05-18T00:23:05.415Z,18.65
2016-05-18T00:24:05.573Z,18.61
2016-05-18T00:25:05.624Z,18.59
2016-05-18T00:26:05.658Z,18.53
2016-05-18T00:27:05.691Z,18.6
2016-05-18T00:28:05.725Z,18.68
2016-05-18T00:29:05.759Z,18.5
2016-05-18T00:30:05.653Z,18.66
2016-05-18T00:31:05.842Z,18.57
2016-05-18T00:32:05.878Z,18.57
2016-05-18T00:33:05.911Z,18.51
2016-05-18T00:34:05.944Z,18.56
2016-05-18T00:35:05.978Z,18.57
2016-05-18T00:36:06.028Z,18.53
2016-05-18T00:37:06.062Z,18.6
2016-05-18T00:38:06.097Z,18.5
2016-05-18T00:39:06.146Z,18.59
2016-05-18T00:40:06.163Z,18.65
2016-05-18T00:41:06.214Z,18.51
2016-05-18T00:42:06.232Z,18.61
2016-05-18T00:43:06.281Z,18.56
2016-05-18T00:44:06.316Z,18.49
2016-05-18T00:45:06.349Z,18.5
2016-05-18T00:46:06.383Z,18.6
2016-05-18T00:47:06.432Z,18.53
2016-05-18T00:48:06.467Z,18.54
2016-05-18T00:49:06.500Z,18.54
2016-05-18T00:50:06.535Z,18.51
2016-05-18T00:51:06.568Z,18.57
2016-05-18T00:52:06.603Z,18.57
2016-05-18T00:53:06.496Z,18.59
2016-05-18T00:54:06.686Z,18.54
2016-05-18T00:55:06.720Z,18.56
2016-05-18T00:56:06.753Z,18.53
2016-05-18T00:57:06.787Z,18.56
2016-05-18T00:58:06.665Z,18.53
2016-05-18T00:59:06.856Z,18.53
2016-05-18T01:00:06.905Z,18.54
2016-05-18T01:01:06.939Z,18.54
2016-05-18T01:02:06.973Z,18.47
2016-05-18T01:03:07.007Z,18.5
2016-05-18T01:04:07.056Z,18.53
2016-05-18T01:05:06.934Z,18.47
2016-05-18T01:06:07.156Z,18.5
2016-05-18T01:07:07.158Z,18.41
2016-05-18T01:08:07.208Z,18.39
2016-05-18T01:09:07.227Z,18.51
2016-05-18T01:10:07.276Z,18.44
2016-05-18T01:11:07.310Z,18.42
2016-05-18T01:12:07.359Z,18.45
2016-05-18T01:13:07.503Z,18.41
2016-05-18T01:14:07.412Z,18.47
2016-05-18T01:15:07.445Z,18.42
2016-05-18T01:16:07.479Z,18.44
2016-05-18T01:17:07.529Z,18.42
2016-05-18T01:18:07.563Z,18.41
2016-05-18T01:19:07.596Z,18.44
2016-05-18T01:20:07.632Z,18.39
2016-05-18T01:21:07.665Z,18.41
2016-05-18T01:22:07.715Z,18.39
2016-05-18T01:23:07.592Z,18.44
2016-05-18T01:24:07.781Z,18.41
2016-05-18T01:25:07.817Z,18.41
2016-05-18T01:26:07.850Z,18.39
2016-05-18T01:27:07.884Z,18.47
2016-05-18T01:28:07.934Z,18.44
2016-05-18T01:29:07.967Z,18.49
2016-05-18T01:30:07.845Z,18.44
2016-05-18T01:31:08.035Z,18.39
2016-05-18T01:32:08.070Z,18.45
2016-05-18T01:33:08.119Z,18.41
2016-05-18T01:34:08.153Z,18.41
2016-05-18T01:35:08.202Z,18.44
2016-05-18T01:36:08.221Z,18.36
2016-05-18T01:37:08.286Z,18.42
2016-05-18T01:38:08.147Z,18.39
2016-05-18T01:39:08.338Z,18.41
2016-05-18T01:40:08.372Z,18.42
2016-05-18T01:41:08.406Z,18.42
2016-05-18T01:42:08.440Z,18.45
2016-05-18T01:43:08.474Z,18.47
2016-05-18T01:44:08.508Z,18.45
2016-05-18T01:45:08.557Z,18.35
2016-05-18T01:46:08.591Z,18.41
2016-05-18T01:47:08.469Z,18.39
2016-05-18T01:48:08.504Z,18.41
2016-05-18T01:49:08.693Z,18.36
2016-05-18T01:50:08.727Z,18.47
2016-05-18T01:51:08.776Z,18.35
2016-05-18T01:52:08.810Z,18.38
2016-05-18T01:53:09.079Z,18.35
2016-05-18T01:54:08.878Z,18.38
2016-05-18T01:55:08.928Z,18.39
2016-05-18T01:56:08.946Z,18.39
2016-05-18T01:57:08.996Z,18.44
2016-05-18T01:58:09.030Z,18.45
2016-05-18T01:59:09.064Z,18.41
2016-05-18T02:00:09.098Z,18.31
2016-05-18T02:01:09.147Z,18.38
2016-05-18T02:02:09.182Z,18.38
2016-05-18T02:03:09.215Z,18.36
2016-05-18T02:04:09.249Z,18.38
2016-05-18T02:05:09.283Z,18.39
2016-05-18T02:06:09.333Z,18.24
2016-05-18T02:07:09.350Z,18.35
2016-05-18T02:08:09.400Z,18.29
2016-05-18T02:09:09.450Z,18.34
2016-05-18T02:10:09.468Z,18.38
2016-05-18T02:11:09.503Z,18.32
2016-05-18T02:12:09.536Z,18.27
2016-05-18T02:13:09.585Z,18.26
2016-05-18T02:14:09.620Z,18.27
2016-05-18T02:15:09.654Z,18.31
2016-05-18T02:16:09.532Z,18.26
2016-05-18T02:17:09.721Z,18.38
2016-05-18T02:18:09.755Z,18.29
2016-05-18T02:19:09.790Z,18.29
2016-05-18T02:20:09.839Z,18.34
2016-05-18T02:21:09.873Z,18.34
2016-05-18T02:22:09.907Z,18.24
2016-05-18T02:23:09.785Z,18.34
2016-05-18T02:24:09.990Z,18.32
2016-05-18T02:25:10.024Z,18.34
2016-05-18T02:26:10.043Z,18.32
2016-05-18T02:27:10.092Z,18.29
2016-05-18T02:28:10.126Z,18.32
2016-05-18T02:29:10.159Z,18.29
2016-05-18T02:30:10.195Z,18.32
2016-05-18T02:31:10.228Z,18.36
2016-05-18T02:32:10.293Z,18.31
2016-05-18T02:33:10.311Z,18.27
2016-05-18T02:34:10.189Z,18.27
2016-05-18T02:35:10.380Z,18.29
2016-05-18T02:36:10.414Z,18.31
2016-05-18T02:37:10.463Z,18.31
2016-05-18T02:38:10.809Z,18.34
2016-05-18T02:39:10.531Z,18.31
2016-05-18T02:40:10.564Z,18.27
2016-05-18T02:41:10.599Z,18.34
2016-05-18T02:42:10.633Z,18.23
2016-05-18T02:43:10.682Z,18.27
2016-05-18T02:44:10.716Z,18.23
2016-05-18T02:45:10.749Z,18.26
2016-05-18T02:46:10.785Z,18.23
2016-05-18T02:47:10.818Z,18.31
2016-05-18T02:48:10.696Z,18.23
2016-05-18T02:49:10.885Z,18.23
2016-05-18T02:50:10.936Z,18.24
2016-05-18T02:51:10.813Z,18.29
2016-05-18T02:52:11.003Z,18.21
2016-05-18T02:53:11.038Z,18.26
2016-05-18T02:54:11.087Z,18.21
2016-05-18T02:55:11.104Z,18.27
2016-05-18T02:56:11.154Z,18.26
2016-05-18T02:57:11.189Z,18.27
2016-05-18T02:58:11.223Z,18.23
2016-05-18T02:59:11.256Z,18.19
2016-05-18T03:00:11.290Z,18.2
2016-05-18T03:01:11.340Z,18.21
2016-05-18T03:02:11.373Z,18.23
2016-05-18T03:03:11.392Z,18.19
2016-05-18T03:04:11.442Z,18.24
2016-05-18T03:05:11.523Z,18.26
2016-05-18T03:06:11.509Z,18.24
2016-05-18T03:07:11.559Z,18.23
2016-05-18T03:08:12.077Z,18.19
2016-05-18T03:09:11.627Z,18.2
2016-05-18T03:10:11.661Z,18.24
2016-05-18T03:11:11.694Z,18.2
2016-05-18T03:12:11.730Z,18.23
2016-05-18T03:13:11.778Z,18.2
2016-05-18T03:14:11.655Z,18.2
2016-05-18T03:15:11.846Z,18.23
2016-05-18T03:16:11.880Z,18.21
2016-05-18T03:17:11.914Z,18.17
2016-05-18T03:18:11.948Z,18.2
2016-05-18T03:19:11.999Z,18.21
2016-05-18T03:20:12.032Z,18.17
2016-05-18T03:21:12.065Z,18.16
2016-05-18T03:22:12.099Z,18.21
2016-05-18T03:23:12.133Z,18.19
2016-05-18T03:24:12.402Z,18.2
2016-05-18T03:25:12.060Z,18.24
2016-05-18T03:26:12.251Z,18.21
2016-05-18T03:27:12.285Z,18.19
2016-05-18T03:28:12.318Z,18.2
2016-05-18T03:29:12.353Z,18.17
2016-05-18T03:30:12.246Z,18.21
2016-05-18T03:31:12.437Z,18.19
2016-05-18T03:32:12.470Z,18.17
2016-05-18T03:33:12.504Z,18.21
2016-05-18T03:34:12.538Z,18.2
2016-05-18T03:35:12.572Z,18.2
2016-05-18T03:36:12.450Z,18.23
2016-05-18T03:37:12.499Z,18.2
2016-05-18T03:38:13.128Z,18.17
2016-05-18T03:39:12.722Z,18.19
2016-05-18T03:40:12.757Z,18.19
2016-05-18T03:41:12.807Z,18.23
2016-05-18T03:42:12.825Z,18.23
2016-05-18T03:43:12.875Z,18.19
2016-05-18T03:44:12.909Z,18.19
2016-05-18T03:45:12.943Z,18.2
2016-05-18T03:46:12.977Z,18.11
2016-05-18T03:47:13.011Z,18.11
2016-05-18T03:48:13.044Z,18.17
2016-05-18T03:49:13.094Z,18.16
2016-05-18T03:50:13.128Z,18.2
2016-05-18T03:51:13.162Z,18.24
2016-05-18T03:52:13.196Z,18.14
2016-05-18T03:53:13.229Z,18.17
2016-05-18T03:54:13.264Z,18.16
2016-05-18T03:55:13.313Z,18.16
2016-05-18T03:56:13.332Z,18.17
2016-05-18T03:57:13.382Z,18.14
2016-05-18T03:58:13.259Z,18.23
2016-05-18T03:59:13.449Z,18.16
2016-05-18T04:00:13.483Z,18.14
2016-05-18T04:01:13.532Z,18.19
2016-05-18T04:02:13.567Z,18.17
2016-05-18T04:03:13.601Z,18.17
2016-05-18T04:04:13.634Z,18.23
2016-05-18T04:05:13.543Z,18.23
2016-05-18T04:06:13.718Z,18.17
2016-05-18T04:07:13.752Z,18.13
2016-05-18T04:08:13.708Z,18.19
2016-05-18T04:09:13.820Z,18.19
2016-05-18T04:10:13.853Z,18.14
2016-05-18T04:11:13.763Z,18.21
2016-05-18T04:12:13.922Z,18.17
2016-05-18T04:13:13.956Z,18.2
2016-05-18T04:14:14.005Z,18.19
2016-05-18T04:15:14.039Z,18.19
2016-05-18T04:16:14.072Z,18.21
2016-05-18T04:17:14.122Z,18.21
2016-05-18T04:18:14.157Z,18.26
2016-05-18T04:19:14.190Z,18.23
2016-05-18T04:20:14.225Z,18.13
2016-05-18T04:21:14.258Z,18.21
2016-05-18T04:22:14.293Z,18.23
2016-05-18T04:23:14.373Z,18.2
2016-05-18T04:24:14.360Z,18.24
2016-05-18T04:25:14.410Z,18.17
2016-05-18T04:26:14.443Z,18.23
2016-05-18T04:27:14.478Z,18.13
2016-05-18T04:28:14.527Z,18.2
2016-05-18T04:29:14.545Z,18.24
2016-05-18T04:30:14.579Z,18.16
2016-05-18T04:31:14.628Z,18.17
2016-05-18T04:32:14.662Z,18.23
2016-05-18T04:33:14.540Z,18.23
2016-05-18T04:34:14.746Z,18.23
2016-05-18T04:35:14.609Z,18.24
2016-05-18T04:36:14.799Z,18.24
2016-05-18T04:37:14.692Z,18.21
2016-05-18T04:38:14.882Z,18.19
2016-05-18T04:39:14.917Z,18.23
2016-05-18T04:40:14.794Z,18.23
2016-05-18T04:41:14.984Z,18.32
2016-05-18T04:42:15.017Z,18.21
2016-05-18T04:43:15.067Z,18.24
2016-05-18T04:44:15.102Z,18.24
2016-05-18T04:45:15.136Z,18.29
2016-05-18T04:46:15.169Z,18.31
2016-05-18T04:47:15.203Z,18.24
2016-05-18T04:48:15.237Z,18.26
2016-05-18T04:49:15.271Z,18.26
2016-05-18T04:50:15.321Z,18.27
2016-05-18T04:51:15.355Z,18.23
2016-05-18T04:52:15.389Z,18.23
2016-05-18T04:53:15.438Z,18.24
2016-05-18T04:54:15.472Z,18.27
2016-05-18T04:55:15.506Z,18.29
2016-05-18T04:56:15.540Z,18.31
2016-05-18T04:57:15.417Z,18.32
2016-05-18T04:58:15.608Z,18.29
2016-05-18T04:59:15.642Z,18.32
2016-05-18T05:00:15.691Z,18.29
2016-05-18T05:01:15.726Z,18.27
2016-05-18T05:02:15.759Z,18.32
2016-05-18T05:03:15.793Z,18.34
2016-05-18T05:04:15.826Z,18.27
2016-05-18T05:05:15.861Z,18.42
2016-05-18T05:06:15.770Z,18.35
2016-05-18T05:07:15.944Z,18.35
2016-05-18T05:08:16.322Z,18.29
2016-05-18T05:09:16.013Z,18.27
2016-05-18T05:10:16.046Z,18.38
2016-05-18T05:11:16.095Z,18.42
2016-05-18T05:12:15.973Z,18.36
2016-05-18T05:13:16.164Z,18.41
2016-05-18T05:14:16.197Z,18.39
2016-05-18T05:15:16.075Z,18.39
2016-05-18T05:16:16.125Z,18.29
2016-05-18T05:17:16.316Z,18.38
2016-05-18T05:18:16.334Z,18.35
2016-05-18T05:19:16.383Z,18.41
2016-05-18T05:20:16.416Z,18.39
2016-05-18T05:21:16.451Z,18.38
2016-05-18T05:22:16.485Z,18.38
2016-05-18T05:23:16.519Z,18.26
2016-05-18T05:24:16.569Z,18.42
2016-05-18T05:25:16.602Z,18.41
2016-05-18T05:26:16.652Z,18.36
2016-05-18T05:27:16.670Z,18.39
2016-05-18T05:28:16.705Z,18.31
2016-05-18T05:29:16.738Z,18.35
2016-05-18T05:30:16.787Z,18.36
2016-05-18T05:31:16.665Z,18.34
2016-05-18T05:32:16.856Z,18.41
2016-05-18T05:33:16.890Z,18.38
2016-05-18T05:34:16.923Z,18.38
2016-05-18T05:35:16.973Z,18.36
2016-05-18T05:36:17.006Z,18.36
2016-05-18T05:37:17.041Z,18.47
2016-05-18T05:38:17.075Z,18.42
2016-05-18T05:39:17.125Z,18.42
2016-05-18T05:40:17.143Z,18.5
2016-05-18T05:41:17.192Z,18.39
2016-05-18T05:42:17.226Z,18.36
2016-05-18T05:43:17.260Z,18.41
2016-05-18T05:44:17.309Z,18.38
2016-05-18T05:45:17.328Z,18.49
2016-05-18T05:46:17.377Z,18.42
2016-05-18T05:47:17.411Z,18.44
2016-05-18T05:48:17.445Z,18.47
2016-05-18T05:49:17.479Z,18.41
2016-05-18T05:50:17.529Z,18.6
2016-05-18T05:51:17.407Z,18.44
2016-05-18T05:52:17.596Z,18.45
2016-05-18T05:53:17.490Z,18.39
2016-05-18T05:54:17.540Z,18.45
2016-05-18T05:55:17.699Z,18.5
2016-05-18T05:56:17.733Z,18.49
2016-05-18T05:57:17.783Z,18.49
2016-05-18T05:58:17.816Z,18.5
2016-05-18T05:59:17.865Z,18.44
2016-05-18T06:00:17.884Z,18.39
2016-05-18T06:01:17.934Z,18.5
2016-05-18T06:02:17.968Z,18.49
2016-05-18T06:03:18.001Z,18.44
2016-05-18T06:04:18.035Z,18.42
2016-05-18T06:05:18.070Z,18.44
2016-05-18T06:06:18.103Z,18.45
2016-05-18T06:07:17.996Z,18.56
2016-05-18T06:08:18.437Z,18.45
2016-05-18T06:09:18.220Z,18.59
2016-05-18T06:10:18.254Z,18.53
2016-05-18T06:11:18.289Z,18.53
2016-05-18T06:12:18.338Z,18.51
2016-05-18T06:13:18.372Z,18.49
2016-05-18T06:14:18.405Z,18.57
2016-05-18T06:15:18.439Z,18.49
2016-05-18T06:16:18.475Z,18.54
2016-05-18T06:17:18.508Z,18.49
2016-05-18T06:18:18.557Z,18.54
2016-05-18T06:19:18.591Z,18.49
2016-05-18T06:20:18.625Z,18.51
2016-05-18T06:21:18.659Z,18.6
2016-05-18T06:22:18.708Z,18.53
2016-05-18T06:23:19.180Z,18.57
2016-05-18T06:24:18.777Z,18.56
2016-05-18T06:25:18.810Z,18.54
2016-05-18T06:26:18.844Z,18.53
2016-05-18T06:27:18.879Z,18.56
2016-05-18T06:28:18.912Z,18.54
2016-05-18T06:29:18.962Z,18.56
2016-05-18T06:30:18.996Z,18.5
2016-05-18T06:31:19.029Z,18.54
2016-05-18T06:32:19.063Z,18.59
2016-05-18T06:33:18.957Z,18.56
2016-05-18T06:34:19.148Z,18.53
2016-05-18T06:35:19.182Z,18.6
2016-05-18T06:36:19.231Z,18.51
2016-05-18T06:37:19.249Z,18.59
2016-05-18T06:38:19.158Z,18.66
2016-05-18T06:39:19.332Z,18.53
2016-05-18T06:40:19.367Z,18.56
2016-05-18T06:41:19.401Z,18.54
2016-05-18T06:42:19.434Z,18.68
2016-05-18T06:43:19.467Z,18.53
2016-05-18T06:44:19.502Z,18.59
2016-05-18T06:45:19.552Z,18.56
2016-05-18T06:46:19.586Z,18.68
2016-05-18T06:47:19.619Z,18.53
2016-05-18T06:48:19.654Z,18.61
2016-05-18T06:49:19.688Z,18.59
2016-05-18T06:50:19.722Z,18.66
2016-05-18T06:51:19.772Z,18.59
2016-05-18T06:52:19.977Z,18.63
2016-05-18T06:53:19.933Z,18.6
2016-05-18T06:54:20.248Z,18.6
2016-05-18T06:55:19.922Z,18.57
2016-05-18T06:56:19.800Z,18.51
2016-05-18T06:57:20.335Z,18.57
2016-05-18T06:58:20.305Z,18.6
2016-05-18T06:59:20.058Z,18.65
2016-05-18T07:00:20.093Z,18.66
2016-05-18T07:01:20.141Z,18.65
2016-05-18T07:02:20.176Z,18.59
2016-05-18T07:03:20.210Z,18.56
2016-05-18T07:04:20.087Z,18.63
2016-05-18T07:05:20.277Z,18.61
2016-05-18T07:06:20.327Z,18.6
2016-05-18T07:07:20.361Z,18.61
2016-05-18T07:08:20.410Z,18.57
2016-05-18T07:09:20.429Z,18.63
2016-05-18T07:10:20.479Z,18.69
2016-05-18T07:11:20.497Z,18.63
2016-05-18T07:12:20.531Z,18.6
2016-05-18T07:13:20.564Z,18.65
2016-05-18T07:14:20.615Z,18.66
2016-05-18T07:15:20.648Z,18.61
2016-05-18T07:16:20.698Z,18.63
2016-05-18T07:17:20.731Z,18.65
2016-05-18T07:18:20.750Z,18.63
2016-05-18T07:19:20.800Z,18.68
2016-05-18T07:20:20.833Z,18.71
2016-05-18T07:21:20.867Z,18.63
2016-05-18T07:22:20.902Z,18.68
2016-05-18T07:23:21.216Z,18.66
2016-05-18T07:24:20.985Z,18.71
2016-05-18T07:25:21.019Z,18.71
2016-05-18T07:26:20.894Z,18.66
2016-05-18T07:27:21.086Z,18.68
2016-05-18T07:28:21.121Z,18.65
2016-05-18T07:29:21.171Z,18.71
2016-05-18T07:30:21.205Z,18.74
2016-05-18T07:31:21.239Z,18.65
2016-05-18T07:32:21.288Z,18.74
2016-05-18T07:33:21.321Z,18.75
2016-05-18T07:34:21.355Z,18.76
2016-05-18T07:35:21.390Z,18.78
2016-05-18T07:36:21.424Z,18.78
2016-05-18T07:37:21.457Z,18.69
2016-05-18T07:38:21.695Z,18.81
2016-05-18T07:39:21.398Z,18.78
2016-05-18T07:40:21.509Z,18.79
2016-05-18T07:41:21.607Z,18.81
2016-05-18T07:42:21.640Z,18.75
2016-05-18T07:43:21.674Z,18.78
2016-05-18T07:44:21.676Z,18.79
2016-05-18T07:45:21.757Z,18.79
2016-05-18T07:46:21.792Z,18.79
2016-05-18T07:47:21.826Z,18.87
2016-05-18T07:48:21.859Z,18.9
2016-05-18T07:49:21.909Z,18.79
2016-05-18T07:50:21.786Z,18.84
2016-05-18T07:51:21.977Z,18.86
2016-05-18T07:52:22.042Z,18.84
2016-05-18T07:53:22.060Z,18.89
2016-05-18T07:54:22.094Z,18.91
2016-05-18T07:55:22.128Z,18.82
2016-05-18T07:56:22.162Z,18.84
2016-05-18T07:57:22.196Z,18.93
2016-05-18T07:58:22.230Z,18.91
2016-05-18T07:59:22.279Z,18.87
2016-05-18T08:00:22.314Z,18.86
2016-05-18T08:01:22.348Z,18.89
2016-05-18T08:02:22.382Z,18.84
2016-05-18T08:03:22.275Z,18.86
2016-05-18T08:04:22.465Z,18.81
2016-05-18T08:05:22.499Z,18.94
2016-05-18T08:06:22.533Z,18.87
2016-05-18T08:07:22.410Z,18.97
2016-05-18T08:08:22.616Z,18.94
2016-05-18T08:09:22.651Z,18.87
2016-05-18T08:10:22.685Z,18.91
2016-05-18T08:11:22.734Z,19.02
2016-05-18T08:12:22.596Z,19.06
2016-05-18T08:13:22.786Z,18.94
2016-05-18T08:14:22.835Z,18.99
2016-05-18T08:15:22.870Z,18.89
2016-05-18T08:16:22.903Z,19
2016-05-18T08:17:23.312Z,18.93
2016-05-18T08:18:23.064Z,19
2016-05-18T08:19:23.020Z,19.07
2016-05-18T08:20:26.636Z,19
2016-05-18T08:21:23.089Z,18.96
2016-05-18T08:22:23.123Z,19.1
2016-05-18T08:23:23.095Z,19.1
2016-05-18T08:24:23.300Z,19.09
2016-05-18T08:25:23.240Z,19.12
2016-05-18T08:26:23.322Z,19.15
2016-05-18T08:27:23.324Z,19.06
2016-05-18T08:28:23.399Z,19.13
2016-05-18T08:29:23.445Z,19.12
2016-05-18T08:30:23.364Z,19.15
2016-05-18T08:31:23.597Z,19.13
2016-05-18T08:32:23.985Z,19.13
2016-05-18T08:33:23.742Z,19.12
2016-05-18T08:34:23.807Z,19.19
2016-05-18T08:35:23.701Z,19.24
2016-05-18T08:36:23.905Z,19.23
2016-05-18T08:37:23.956Z,19.17
2016-05-18T08:38:24.018Z,19.19
2016-05-18T08:39:24.057Z,19.2
2016-05-18T08:40:24.096Z,19.17
2016-05-18T08:41:24.151Z,19.23
2016-05-18T08:42:24.175Z,19.17
2016-05-18T08:43:24.229Z,19.17
2016-05-18T08:44:24.266Z,19.16
2016-05-18T08:45:24.302Z,19.24
2016-05-18T08:46:24.713Z,19.27
2016-05-18T08:47:24.218Z,19.24
2016-05-18T08:48:24.269Z,19.16
2016-05-18T08:49:24.461Z,19.3
2016-05-18T08:50:24.510Z,19.28
2016-05-18T08:51:24.545Z,19.32
2016-05-18T08:52:24.580Z,19.27
2016-05-18T08:53:24.802Z,19.35
2016-05-18T08:54:24.664Z,19.34
2016-05-18T08:55:24.683Z,19.32
2016-05-18T08:56:24.717Z,19.34
2016-05-18T08:57:24.750Z,19.31
2016-05-18T08:58:24.800Z,19.28
2016-05-18T08:59:24.833Z,19.38
2016-05-18T09:00:24.868Z,19.31
2016-05-18T09:01:24.902Z,19.32
2016-05-18T09:02:24.951Z,19.34
2016-05-18T09:03:24.985Z,19.38
2016-05-18T09:04:25.019Z,19.32
2016-05-18T09:05:25.069Z,19.38
2016-05-18T09:06:25.118Z,19.37
2016-05-18T09:07:25.137Z,19.4
2016-05-18T09:08:25.170Z,19.38
2016-05-18T09:09:25.204Z,19.46
2016-05-18T09:10:25.270Z,19.42
2016-05-18T09:11:25.491Z,19.45
2016-05-18T09:12:25.165Z,19.42
2016-05-18T09:13:25.215Z,19.42
2016-05-18T09:14:25.390Z,19.42
2016-05-18T09:15:25.423Z,19.42
2016-05-18T09:16:25.473Z,19.42
2016-05-18T09:17:25.351Z,19.45
2016-05-18T09:18:25.542Z,19.45
2016-05-18T09:19:25.590Z,19.45
2016-05-18T09:20:25.625Z,19.46
2016-05-18T09:21:25.658Z,19.5
2016-05-18T09:22:25.536Z,19.37
2016-05-18T09:23:25.961Z,19.53
2016-05-18T09:24:25.776Z,19.42
2016-05-18T09:25:25.810Z,19.56
2016-05-18T09:26:25.844Z,19.53
2016-05-18T09:27:25.878Z,19.55
2016-05-18T09:28:25.927Z,19.55
2016-05-18T09:29:25.961Z,19.65
2016-05-18T09:30:25.994Z,19.6
2016-05-18T09:31:26.029Z,19.53
2016-05-18T09:32:26.079Z,19.55
2016-05-18T09:33:26.113Z,19.64
2016-05-18T09:34:26.146Z,19.64
2016-05-18T09:35:26.024Z,19.63
2016-05-18T09:36:26.215Z,19.61
2016-05-18T09:37:26.248Z,19.67
2016-05-18T09:38:26.313Z,19.63
2016-05-18T09:39:26.332Z,19.65
2016-05-18T09:40:26.366Z,19.64
2016-05-18T09:41:26.415Z,19.67
2016-05-18T09:42:26.449Z,19.74
2016-05-18T09:43:26.483Z,19.65
2016-05-18T09:44:26.517Z,19.68
2016-05-18T09:45:26.567Z,19.68
2016-05-18T09:46:26.601Z,19.64
2016-05-18T09:47:26.634Z,19.75
2016-05-18T09:48:26.512Z,19.67
2016-05-18T09:49:26.718Z,19.67
2016-05-18T09:50:26.752Z,19.65
2016-05-18T09:51:26.630Z,19.71
2016-05-18T09:52:26.820Z,19.7
2016-05-18T09:53:26.854Z,19.79
2016-05-18T09:54:26.903Z,19.79
2016-05-18T09:55:26.937Z,19.71
2016-05-18T09:56:26.815Z,19.8
2016-05-18T09:57:27.006Z,19.75
2016-05-18T09:58:27.055Z,19.75
2016-05-18T09:59:27.089Z,19.8
2016-05-18T10:00:27.122Z,19.78
2016-05-18T10:01:27.157Z,19.83
2016-05-18T10:02:27.206Z,19.75
2016-05-18T10:03:27.241Z,19.78
2016-05-18T10:04:27.274Z,19.79
2016-05-18T10:05:27.324Z,19.8
2016-05-18T10:06:27.358Z,19.79
2016-05-18T10:07:27.391Z,19.7
2016-05-18T10:08:27.441Z,19.75
2016-05-18T10:09:27.460Z,19.85
2016-05-18T10:10:27.352Z,19.78
2016-05-18T10:11:27.543Z,19.82
2016-05-18T10:12:27.577Z,19.7
2016-05-18T10:13:27.610Z,19.78
2016-05-18T10:14:27.660Z,19.75
2016-05-18T10:15:27.710Z,19.79
2016-05-18T10:16:27.728Z,19.79
2016-05-18T10:17:27.762Z,19.74
2016-05-18T10:18:27.812Z,19.82
2016-05-18T10:19:27.846Z,19.85
2016-05-18T10:20:27.879Z,19.8
2016-05-18T10:21:27.914Z,19.8
2016-05-18T10:22:27.948Z,19.74
2016-05-18T10:23:27.997Z,19.78
2016-05-18T10:24:28.031Z,19.85
2016-05-18T10:25:28.065Z,19.78
2016-05-18T10:26:28.099Z,19.74
2016-05-18T10:27:27.992Z,19.74
2016-05-18T10:28:28.183Z,19.79
2016-05-18T10:29:28.294Z,19.78
2016-05-18T10:30:28.110Z,19.61
2016-05-18T10:31:28.144Z,19.61
2016-05-18T10:32:28.366Z,19.52
2016-05-18T10:33:28.368Z,19.43
2016-05-18T10:34:28.433Z,19.37
2016-05-18T10:35:28.452Z,19.31
2016-05-18T10:36:28.486Z,19.24
2016-05-18T10:37:28.519Z,19.31
2016-05-18T10:38:28.868Z,19.3
2016-05-18T10:39:28.587Z,19.25
2016-05-18T10:40:28.637Z,19.2
2016-05-18T10:41:28.671Z,19.27
2016-05-18T10:42:28.721Z,19.17
2016-05-18T10:43:28.754Z,19.15
2016-05-18T10:44:28.804Z,19.19
2016-05-18T10:45:28.822Z,19.17
2016-05-18T10:46:28.871Z,19.17
2016-05-18T10:47:28.968Z,19.09
2016-05-18T10:48:28.955Z,19.09
2016-05-18T10:49:28.974Z,19.16
2016-05-18T10:50:29.007Z,19.09
2016-05-18T10:51:29.041Z,19.02
2016-05-18T10:52:29.076Z,19.12
2016-05-18T10:53:29.706Z,19.06
2016-05-18T10:54:29.175Z,19.15
2016-05-18T10:55:29.037Z,19.13
2016-05-18T10:56:29.242Z,19.17
2016-05-18T10:57:29.276Z,19.19
2016-05-18T10:58:29.311Z,19.2
2016-05-18T10:59:29.375Z,19.15
2016-05-18T11:00:29.378Z,19.15
2016-05-18T11:01:29.412Z,19.23
2016-05-18T11:02:29.462Z,19.19
2016-05-18T11:03:29.495Z,19.16
2016-05-18T11:04:29.530Z,19.17
2016-05-18T11:05:29.563Z,19.24
2016-05-18T11:06:29.457Z,19.24
2016-05-18T11:07:29.506Z,19.16
2016-05-18T11:08:29.855Z,19.12
2016-05-18T11:09:29.717Z,19.12
2016-05-18T11:10:29.752Z,19.07
2016-05-18T11:11:29.801Z,19.09
2016-05-18T11:12:29.835Z,19.07
2016-05-18T11:13:29.900Z,19.02
2016-05-18T11:14:29.918Z,19.06
2016-05-18T11:15:29.951Z,19.05
2016-05-18T11:16:29.987Z,19.02
2016-05-18T11:17:30.051Z,19.07
2016-05-18T11:18:30.070Z,19.05
2016-05-18T11:19:30.087Z,19.09
2016-05-18T11:20:29.978Z,19.12
2016-05-18T11:21:30.187Z,19.16
2016-05-18T11:22:30.206Z,19.12
2016-05-18T11:23:30.096Z,19.13
2016-05-18T11:24:30.289Z,19.16
2016-05-18T11:25:30.323Z,19.2
2016-05-18T11:26:30.200Z,19.25
2016-05-18T11:27:30.392Z,19.23
2016-05-18T11:28:30.425Z,19.2
2016-05-18T11:29:30.474Z,19.27
2016-05-18T11:30:30.508Z,19.23
2016-05-18T11:31:30.542Z,19.25
2016-05-18T11:32:30.575Z,19.28
2016-05-18T11:33:30.625Z,19.24
2016-05-18T11:34:30.660Z,19.31
2016-05-18T11:35:30.694Z,19.35
2016-05-18T11:36:30.571Z,19.35
2016-05-18T11:37:30.777Z,19.37
2016-05-18T11:38:30.811Z,19.38
2016-05-18T11:39:30.844Z,19.35
2016-05-18T11:40:30.879Z,19.46
2016-05-18T11:41:30.913Z,19.52
2016-05-18T11:42:30.947Z,19.5
2016-05-18T11:43:30.996Z,19.46
2016-05-18T11:44:31.030Z,19.57
2016-05-18T11:45:31.064Z,19.63
2016-05-18T11:46:31.098Z,19.6
2016-05-18T11:47:31.132Z,19.65
2016-05-18T11:48:31.181Z,19.75
2016-05-18T11:49:31.232Z,19.65
2016-05-18T11:50:31.249Z,19.71
2016-05-18T11:51:31.298Z,19.8
2016-05-18T11:52:31.334Z,19.8
2016-05-18T11:53:31.211Z,19.82
2016-05-18T11:54:31.401Z,19.86
2016-05-18T11:55:31.434Z,19.75
2016-05-18T11:56:31.484Z,19.89
2016-05-18T11:57:31.518Z,19.86
2016-05-18T11:58:31.552Z,19.87
2016-05-18T11:59:31.602Z,19.93
2016-05-18T12:00:31.480Z,19.89
2016-05-18T12:01:31.669Z,19.87
2016-05-18T12:02:31.703Z,19.93
2016-05-18T12:03:31.738Z,20.02
2016-05-18T12:04:31.787Z,20.02
2016-05-18T12:05:31.821Z,20.08
2016-05-18T12:06:31.871Z,20.1
2016-05-18T12:07:32.045Z,20.02
2016-05-18T12:08:31.985Z,20.16
2016-05-18T12:09:31.988Z,20.08
2016-05-18T12:10:31.850Z,20.18
2016-05-18T12:11:32.041Z,20.11
2016-05-18T12:12:32.090Z,20.25
2016-05-18T12:13:31.968Z,20.25
2016-05-18T12:14:32.157Z,20.32
2016-05-18T12:15:32.207Z,20.27
2016-05-18T12:16:32.241Z,20.29
2016-05-18T12:17:32.275Z,20.3
2016-05-18T12:18:32.310Z,20.23
2016-05-18T12:19:32.390Z,20.29
2016-05-18T12:20:32.408Z,20.32
2016-05-18T12:21:32.427Z,20.29
2016-05-18T12:22:32.476Z,20.27
2016-05-18T12:23:32.744Z,20.26
2016-05-18T12:24:32.904Z,20.32
2016-05-18T12:25:32.422Z,20.26
2016-05-18T12:26:32.456Z,20.2
2016-05-18T12:27:32.661Z,20.15
2016-05-18T12:28:32.711Z,20.19
2016-05-18T12:29:32.745Z,20.19
2016-05-18T12:30:32.778Z,20.18
2016-05-18T12:31:32.813Z,20.2
2016-05-18T12:32:32.847Z,20.2
2016-05-18T12:33:32.880Z,20.18
2016-05-18T12:34:32.915Z,20.11
2016-05-18T12:35:32.964Z,20.05
2016-05-18T12:36:32.997Z,20.01
2016-05-18T12:37:33.048Z,20.07
2016-05-18T12:38:33.363Z,20.07
2016-05-18T12:39:33.115Z,20.08
2016-05-18T12:40:33.149Z,20.1
2016-05-18T12:41:33.183Z,20.1
2016-05-18T12:42:33.218Z,20
2016-05-18T12:43:33.266Z,20.01
2016-05-18T12:44:33.301Z,20
2016-05-18T12:45:33.335Z,19.92
2016-05-18T12:46:33.385Z,20
2016-05-18T12:47:33.434Z,20
2016-05-18T12:48:33.451Z,20.02
2016-05-18T12:49:33.487Z,20
2016-05-18T12:50:33.535Z,19.92
2016-05-18T12:51:33.570Z,19.85
2016-05-18T12:52:33.620Z,19.95
2016-05-18T12:53:33.653Z,19.92
2016-05-18T12:54:33.687Z,19.97
2016-05-18T12:55:33.721Z,19.9